Time;durP1;ratioP1;P1;durP2;ratioP2;P2;SDS_P1;SDS_P2;PMS_P1;PMS_P2;Temp;Humidity;BMP_temperature;BMP_pressure;BME280_temperature;BME280_humidity;BME280_pressure;Samples;Min_cycle;Max_cycle;Signal;HPM_P1;HPM_P2
2023/01/14 00:01:15;;;;;;;5.60;2.13;;;6.80;1.00;;;;;;5114582;27;20453;-78
2023/01/14 00:03:44;;;;;;;4.10;1.40;;;6.80;1.00;;;;;;5113691;27;20952;-79
2023/01/14 00:06:15;;;;;;;2.83;1.53;;;6.70;99.40;;;;;;5114092;27;20947;-79
2023/01/14 00:08:44;;;;;;;5.17;1.53;;;6.70;1.00;;;;;;5096424;27;20843;-80
2023/01/14 00:11:14;;;;;;;2.50;1.40;;;6.80;1.00;;;;;;5115674;27;20961;-78
2023/01/14 00:13:43;;;;;;;2.80;1.20;;;6.90;1.00;;;;;;5109949;27;20438;-78
2023/01/14 00:16:14;;;;;;;3.13;1.43;;;6.80;1.00;;;;;;5103735;27;20485;-79
2023/01/14 00:18:42;;;;;;;3.83;2.03;;;6.80;1.00;;;;;;5112734;27;20476;-78
2023/01/14 00:21:14;;;;;;;3.37;1.53;;;7.00;1.00;;;;;;5105407;27;20491;-78
2023/01/14 00:23:43;;;;;;;5.90;1.77;;;7.00;1.00;;;;;;5109576;27;20815;-80
2023/01/14 00:26:13;;;;;;;3.40;1.30;;;7.00;1.00;;;;;;5109077;27;20841;-79
2023/01/14 00:28:42;;;;;;;3.00;1.30;;;7.10;1.00;;;;;;5110706;27;20465;-78
2023/01/14 00:31:12;;;;;;;4.47;1.40;;;7.00;1.00;;;;;;5105319;27;20461;-78
2023/01/14 00:33:42;;;;;;;4.13;1.30;;;6.90;1.00;;;;;;5110928;27;20433;-80
2023/01/14 00:36:12;;;;;;;3.00;1.50;;;7.00;99.90;;;;;;5110978;27;20477;-79
2023/01/14 00:38:42;;;;;;;1.73;1.40;;;6.80;1.00;;;;;;5108518;27;20565;-77
2023/01/14 00:41:12;;;;;;;5.80;1.50;;;6.60;1.00;;;;;;5110077;27;21032;-78
2023/01/14 00:43:42;;;;;;;2.53;1.40;;;6.70;71.60;;;;;;5111390;27;20457;-78
2023/01/14 00:46:13;;;;;;;4.50;1.40;;;6.70;1.00;;;;;;5104277;27;20470;-79
2023/01/14 00:48:42;;;;;;;3.37;1.70;;;6.80;11.40;;;;;;5084146;28;20529;-78
2023/01/14 00:51:12;;;;;;;1.83;1.33;;;6.90;1.00;;;;;;5106398;27;20464;-79
2023/01/14 00:53:42;;;;;;;6.57;2.03;;;6.90;99.90;;;;;;5101831;27;20511;-79
2023/01/14 00:56:11;;;;;;;2.53;1.40;;;6.90;99.90;;;;;;5108410;27;20771;-79
2023/01/14 00:58:39;;;;;;;3.63;1.40;;;6.70;1.00;;;;;;5107386;27;20554;-79
2023/01/14 01:01:07;;;;;;;2.33;1.30;;;6.80;1.00;;;;;;5110883;27;20449;-78
2023/01/14 01:03:39;;;;;;;5.40;1.47;;;6.80;1.00;;;;;;5109266;27;20454;-79
2023/01/14 01:06:07;;;;;;;4.70;1.30;;;6.80;1.00;;;;;;5113147;27;20436;-80
2023/01/14 01:08:36;;;;;;;2.80;1.20;;;7.00;5.10;;;;;;5110571;27;20520;-79
2023/01/14 01:11:06;;;;;;;4.63;1.30;;;7.00;99.90;;;;;;5110292;27;20458;-78
2023/01/14 01:13:35;;;;;;;4.30;1.37;;;7.00;54.50;;;;;;5101914;27;20458;-79
2023/01/14 01:16:06;;;;;;;2.33;1.30;;;6.80;1.00;;;;;;5089646;27;20480;-78
2023/01/14 01:18:34;;;;;;;1.63;1.37;;;6.90;99.90;;;;;;5109581;27;20481;-80
2023/01/14 01:21:03;;;;;;;5.10;1.50;;;6.80;1.00;;;;;;5116293;27;20899;-78
2023/01/14 01:23:32;;;;;;;4.30;1.37;;;6.80;99.90;;;;;;5119472;27;20488;-79
2023/01/14 01:26:00;;;;;;;3.33;1.40;;;6.80;71.50;;;;;;5117439;27;20520;-78
2023/01/14 01:28:30;;;;;;;4.83;1.33;;;6.90;99.90;;;;;;5115403;27;20546;-79
2023/01/14 01:31:01;;;;;;;2.63;1.40;;;6.80;99.90;;;;;;5122128;27;20457;-79
2023/01/14 01:33:30;;;;;;;3.50;1.40;;;6.70;95.70;;;;;;5122415;27;20557;-78
2023/01/14 01:36:02;;;;;;;2.13;1.30;;;6.60;1.00;;;;;;5101314;27;20539;-79
2023/01/14 01:38:30;;;;;;;2.33;2.13;;;6.70;99.90;;;;;;5117809;27;20504;-78
2023/01/14 01:40:59;;;;;;;4.63;1.20;;;6.80;99.90;;;;;;5100679;27;20455;-78
2023/01/14 01:43:31;;;;;;;2.17;1.23;;;6.80;99.90;;;;;;5118300;27;20453;-79
2023/01/14 01:46:00;;;;;;;4.57;1.30;;;6.80;1.00;;;;;;5108889;27;20443;-78
2023/01/14 01:48:32;;;;;;;4.60;1.47;;;6.80;99.90;;;;;;5113251;27;20822;-79
2023/01/14 01:51:06;;;;;;;2.60;1.43;;;6.70;99.90;;;;;;5111374;27;20561;-79
2023/01/14 01:53:39;;;;;;;6.27;1.60;;;6.70;99.90;;;;;;5107432;27;20548;-78
2023/01/14 01:56:10;;;;;;;2.97;1.50;;;6.60;99.90;;;;;;5111274;27;20454;-78
2023/01/14 01:58:40;;;;;;;1.83;1.30;;;6.50;1.00;;;;;;5109948;27;20473;-78
2023/01/14 02:01:08;;;;;;;4.33;1.50;;;6.50;1.00;;;;;;5110851;27;20467;-78
2023/01/14 02:03:39;;;;;;;1.73;1.40;;;6.40;46.20;;;;;;5106389;27;20486;-78
2023/01/14 02:06:08;;;;;;;5.60;2.10;;;6.50;1.00;;;;;;5114425;27;20482;-76
2023/01/14 02:08:39;;;;;;;3.77;2.07;;;6.70;91.80;;;;;;5109693;27;20533;-78
2023/01/14 02:11:30;;;;;;;4.30;1.33;;;6.50;99.90;;;;;;5090905;28;20991;-78
2023/01/14 02:14:08;;;;;;;1.80;1.30;;;6.50;99.90;;;;;;5101489;28;20500;-77
2023/01/14 02:16:48;;;;;;;3.03;1.60;;;6.60;99.90;;;;;;5109635;28;20484;-78
2023/01/14 02:19:24;;;;;;;5.03;1.73;;;6.60;99.90;;;;;;5113632;28;20482;-78
2023/01/14 02:22:18;;;;;;;3.07;1.40;;;6.60;99.90;;;;;;5105602;28;20547;-77
2023/01/14 02:25:15;;;;;;;3.53;1.40;;;6.40;1.00;;;;;;5114111;28;20433;-78
2023/01/14 02:27:53;;;;;;;4.60;1.33;;;6.40;1.00;;;;;;5114914;28;20457;-79
2023/01/14 02:30:40;;;;;;;2.43;1.47;;;6.20;1.00;;;;;;5109972;28;20454;-79
2023/01/14 02:33:23;;;;;;;2.50;1.20;;;6.20;1.00;;;;;;5107919;28;21136;-79
2023/01/14 02:35:56;;;;;;;4.67;1.70;;;6.30;99.90;;;;;;5092101;28;20514;-79
2023/01/14 02:38:34;;;;;;;2.53;1.20;;;6.20;1.00;;;;;;5108379;28;20520;-77
2023/01/14 02:41:09;;;;;;;4.40;1.80;;;6.40;1.00;;;;;;5109519;28;20454;-79
2023/01/14 02:46:34;;;;;;;2.97;1.10;;;6.40;26.40;;;;;;5112718;28;20482;-80
2023/01/14 02:49:05;;;;;;;2.37;2.03;;;6.30;1.00;;;;;;5110900;28;20461;-79
2023/01/14 02:51:34;;;;;;;3.67;1.23;;;6.20;1.00;;;;;;5104009;28;20563;-79
2023/01/14 02:54:02;;;;;;;2.77;1.17;;;6.40;99.90;;;;;;5111009;28;21120;-80
2023/01/14 02:56:31;;;;;;;3.33;1.27;;;6.50;1.00;;;;;;5110262;28;20468;-79
2023/01/14 02:59:23;;;;;;;4.97;1.30;;;6.30;1.00;;;;;;5109593;28;20573;-78
2023/01/14 03:02:21;;;;;;;3.00;2.33;;;6.30;1.00;;;;;;5105167;28;20534;-79
2023/01/14 03:05:17;;;;;;;3.03;1.30;;;6.40;99.90;;;;;;5109376;28;20445;-80
2023/01/14 03:07:51;;;;;;;10.27;2.00;;;6.30;1.00;;;;;;5111324;28;20448;-80
2023/01/14 03:10:24;;;;;;;2.40;1.57;;;6.20;99.90;;;;;;5095997;28;20815;-79
2023/01/14 03:13:04;;;;;;;2.20;1.30;;;6.20;1.00;;;;;;5091595;28;20969;-79
2023/01/14 03:15:40;;;;;;;2.03;1.30;;;6.10;99.90;;;;;;5083875;28;20453;-80
2023/01/14 03:18:19;;;;;;;4.33;1.50;;;5.90;1.00;;;;;;5106582;28;20476;-80
2023/01/14 03:20:52;;;;;;;4.43;1.50;;;6.00;99.90;;;;;;5093939;27;20452;-80
2023/01/14 03:23:24;;;;;;;1.47;1.30;;;6.20;99.90;;;;;;5115092;27;20453;-79
2023/01/14 03:25:54;;;;;;;4.07;2.37;;;6.10;1.00;;;;;;5113789;27;20453;-79
2023/01/14 03:28:29;;;;;;;2.63;1.40;;;5.90;99.90;;;;;;5118038;27;20547;-78
2023/01/14 03:31:01;;;;;;;5.50;2.10;;;6.00;78.80;;;;;;5114279;27;20457;-79
2023/01/14 03:33:34;;;;;;;2.63;1.30;;;6.20;1.00;;;;;;5111207;27;20475;-79
2023/01/14 03:36:05;;;;;;;8.37;2.17;;;6.00;99.90;;;;;;5112991;27;20456;-80
2023/01/14 03:38:37;;;;;;;1.87;1.77;;;6.00;1.00;;;;;;5116505;27;20836;-79
2023/01/14 03:41:09;;;;;;;3.47;1.37;;;6.00;99.90;;;;;;5115415;27;20456;-79
2023/01/14 03:43:43;;;;;;;1.90;1.20;;;6.10;99.90;;;;;;5113158;27;20456;-79
2023/01/14 03:46:12;;;;;;;4.40;1.70;;;6.00;99.90;;;;;;5089939;27;20455;-78
2023/01/14 03:48:41;;;;;;;6.00;1.60;;;6.00;1.00;;;;;;5113700;27;20563;-78
2023/01/14 03:51:18;;;;;;;8.07;2.00;;;6.10;99.90;;;;;;5115271;27;20798;-80
2023/01/14 03:53:56;;;;;;;2.40;1.13;;;6.00;99.90;;;;;;5108467;27;20445;-78
2023/01/14 03:56:27;;;;;;;3.03;1.10;;;6.10;1.00;;;;;;5114416;27;20463;-78
2023/01/14 03:59:02;;;;;;;1.47;1.27;;;6.00;99.90;;;;;;5108761;27;20496;-79
2023/01/14 04:01:36;;;;;;;1.43;1.10;;;5.80;99.90;;;;;;5113634;27;20451;-79
2023/01/14 04:04:07;;;;;;;6.00;1.53;;;5.90;87.60;;;;;;5112313;27;20476;-80
2023/01/14 04:06:35;;;;;;;2.20;1.37;;;5.90;99.90;;;;;;5113514;27;20965;-79
2023/01/14 04:09:05;;;;;;;1.27;1.13;;;6.10;1.00;;;;;;5112681;27;20470;-78
2023/01/14 04:11:34;;;;;;;1.63;1.10;;;6.00;1.00;;;;;;5110767;27;20457;-80
2023/01/14 04:16:47;;;;;;;1.40;1.30;;;5.80;99.90;;;;;;5112683;27;20517;-80
2023/01/14 04:19:17;;;;;;;2.53;1.50;;;6.10;99.90;;;;;;5105997;27;20477;-80
2023/01/14 04:21:45;;;;;;;1.93;1.30;;;6.20;99.90;;;;;;5113833;27;20461;-77
2023/01/14 04:24:13;;;;;;;1.40;1.30;;;6.00;99.90;;;;;;5104865;27;20457;-79
2023/01/14 04:26:41;;;;;;;1.53;1.37;;;5.80;1.00;;;;;;5100091;27;20461;-79
2023/01/14 04:29:09;;;;;;;3.77;1.40;;;5.90;1.00;;;;;;5106184;27;21003;-79
2023/01/14 04:31:38;;;;;;;3.90;1.20;;;6.10;99.90;;;;;;5110331;27;20995;-79
2023/01/14 04:34:06;;;;;;;2.60;1.50;;;6.00;99.90;;;;;;5108683;27;20474;-78
2023/01/14 04:36:35;;;;;;;2.77;1.73;;;5.80;1.00;;;;;;5109342;27;20482;-78
2023/01/14 04:39:04;;;;;;;1.40;1.30;;;6.00;1.00;;;;;;5101575;27;20956;-78
2023/01/14 04:44:17;;;;;;;2.70;1.40;;;6.20;1.00;;;;;;5103972;27;20474;-78
2023/01/14 04:46:45;;;;;;;1.70;1.20;;;6.10;99.90;;;;;;5114410;27;20449;-79
2023/01/14 04:49:13;;;;;;;2.33;1.87;;;6.00;1.00;;;;;;5106969;27;20480;-77
2023/01/14 04:51:43;;;;;;;1.63;1.40;;;6.10;99.90;;;;;;5103556;27;20515;-78
2023/01/14 04:54:11;;;;;;;2.27;1.30;;;6.00;99.90;;;;;;5102598;27;21006;-79
2023/01/14 04:56:39;;;;;;;1.97;1.37;;;6.00;99.90;;;;;;5110128;27;20460;-79
2023/01/14 04:59:07;;;;;;;5.90;1.40;;;5.90;1.00;;;;;;5105910;27;20483;-79
2023/01/14 05:01:35;;;;;;;2.77;1.20;;;5.90;99.90;;;;;;5105969;27;20527;-79
2023/01/14 05:04:04;;;;;;;1.50;1.40;;;6.00;99.90;;;;;;5113876;27;20549;-79
2023/01/14 05:06:32;;;;;;;5.83;1.43;;;6.10;99.90;;;;;;5104134;27;21004;-79
2023/01/14 05:09:02;;;;;;;3.83;1.30;;;6.20;1.00;;;;;;5116256;27;20470;-79
2023/01/14 05:11:30;;;;;;;2.80;1.63;;;6.30;99.90;;;;;;5102877;27;21136;-78
2023/01/14 05:13:58;;;;;;;3.87;1.50;;;6.10;1.00;;;;;;5112273;27;20819;-79
2023/01/14 05:16:27;;;;;;;3.90;1.40;;;6.20;99.90;;;;;;5102250;27;20454;-78
2023/01/14 05:18:55;;;;;;;3.00;1.33;;;6.00;99.90;;;;;;5108651;27;20546;-78
2023/01/14 05:21:25;;;;;;;1.53;1.30;;;6.00;99.90;;;;;;5103140;27;20967;-79
2023/01/14 05:23:53;;;;;;;2.87;1.67;;;5.90;99.90;;;;;;5114869;27;20481;-79
2023/01/14 05:26:22;;;;;;;2.67;1.60;;;6.00;1.00;;;;;;5088842;28;20453;-80
2023/01/14 05:28:50;;;;;;;3.67;1.60;;;6.20;92.20;;;;;;5111381;27;20924;-78
2023/01/14 05:31:19;;;;;;;3.30;1.50;;;6.10;1.00;;;;;;5108201;27;21128;-79
2023/01/14 05:33:47;;;;;;;2.03;1.27;;;6.00;1.00;;;;;;5108539;27;20440;-79
2023/01/14 05:36:15;;;;;;;1.73;1.20;;;6.00;1.00;;;;;;5107519;27;20510;-79
2023/01/14 05:38:43;;;;;;;2.53;1.20;;;6.10;1.00;;;;;;5106045;27;20567;-79
2023/01/14 05:41:14;;;;;;;1.57;1.10;;;6.00;1.00;;;;;;5102361;27;20555;-79
2023/01/14 05:46:28;;;;;;;2.30;1.20;;;6.00;1.00;;;;;;5110207;27;20464;-77
2023/01/14 05:48:57;;;;;;;2.70;1.30;;;6.20;1.00;;;;;;5104877;27;20987;-78
2023/01/14 05:51:25;;;;;;;3.57;1.30;;;6.20;99.90;;;;;;5100596;27;20612;-78
2023/01/14 05:53:53;;;;;;;3.30;1.40;;;6.10;1.00;;;;;;5110127;27;20452;-78
2023/01/14 05:56:21;;;;;;;2.03;1.53;;;6.20;1.00;;;;;;5113867;27;20450;-80
2023/01/14 05:58:51;;;;;;;3.23;1.53;;;6.20;1.00;;;;;;5115007;27;20583;-80
2023/01/14 06:06:51;;;;;;;2.80;1.83;;;6.30;99.90;;;;;;5109960;27;20489;-76
2023/01/14 06:09:20;;;;;;;6.07;1.67;;;6.20;99.90;;;;;;5112040;27;21202;-79
2023/01/14 06:11:50;;;;;;;5.60;1.60;;;6.20;1.00;;;;;;5113683;27;20445;-79
2023/01/14 06:14:20;;;;;;;2.23;1.47;;;6.10;99.90;;;;;;5125571;27;20448;-79
2023/01/14 06:16:51;;;;;;;7.13;1.93;;;6.10;1.00;;;;;;5124073;27;20497;-80
2023/01/14 06:19:20;;;;;;;4.60;1.40;;;6.30;99.90;;;;;;5123996;28;20584;-79
2023/01/14 06:21:48;;;;;;;2.10;1.40;;;6.20;99.90;;;;;;5103585;28;20544;-78
2023/01/14 06:24:16;;;;;;;2.93;1.37;;;6.30;1.00;;;;;;5102139;28;20462;-79
2023/01/14 06:26:44;;;;;;;4.40;1.87;;;6.20;1.00;;;;;;5101563;28;21153;-78
2023/01/14 06:29:13;;;;;;;2.50;1.40;;;6.30;99.90;;;;;;5101906;28;20459;-78
2023/01/14 06:31:43;;;;;;;3.40;1.40;;;6.40;99.90;;;;;;5094665;28;20462;-77
2023/01/14 06:34:11;;;;;;;3.10;1.50;;;6.30;99.90;;;;;;5096405;28;20493;-78
2023/01/14 06:36:40;;;;;;;4.53;2.13;;;6.40;99.90;;;;;;5105143;28;20988;-79
2023/01/14 06:39:08;;;;;;;3.93;2.33;;;6.30;99.90;;;;;;5108939;28;20495;-79
2023/01/14 06:41:36;;;;;;;6.83;1.80;;;6.20;99.90;;;;;;5084079;28;20451;-79
2023/01/14 06:44:04;;;;;;;3.40;1.70;;;6.20;99.90;;;;;;5104632;28;20453;-78
2023/01/14 06:46:33;;;;;;;2.50;2.03;;;6.40;99.90;;;;;;5106752;28;20465;-78
2023/01/14 06:49:02;;;;;;;2.07;1.40;;;6.40;99.90;;;;;;5079540;28;20477;-79
2023/01/14 06:51:32;;;;;;;4.10;1.90;;;6.30;99.90;;;;;;5105218;28;20456;-79
2023/01/14 06:54:00;;;;;;;3.47;1.73;;;6.30;99.90;;;;;;5101387;28;20452;-79
2023/01/14 06:56:29;;;;;;;6.77;2.83;;;6.50;99.90;;;;;;5089149;27;20546;-79
2023/01/14 06:58:57;;;;;;;4.97;1.87;;;6.40;99.90;;;;;;5112592;27;20574;-80
2023/01/14 07:01:25;;;;;;;5.13;1.87;;;6.60;99.90;;;;;;5118337;27;20449;-78
2023/01/14 07:03:53;;;;;;;6.13;1.60;;;6.50;17.20;;;;;;5112563;27;20514;-79
2023/01/14 07:06:23;;;;;;;5.40;1.70;;;6.50;99.90;;;;;;5109532;27;21153;-79
2023/01/14 07:08:51;;;;;;;7.57;1.73;;;6.70;99.90;;;;;;5109013;27;20481;-79
2023/01/14 07:11:19;;;;;;;3.43;2.17;;;6.60;99.90;;;;;;5105908;27;20887;-78
2023/01/14 07:13:47;;;;;;;3.23;1.87;;;6.50;99.90;;;;;;5110768;27;20495;-79
2023/01/14 07:16:15;;;;;;;3.23;1.47;;;6.50;99.90;;;;;;5091812;27;20486;-78
2023/01/14 07:18:44;;;;;;;5.23;2.37;;;6.40;99.90;;;;;;5114452;27;20464;-78
2023/01/14 07:21:12;;;;;;;3.90;1.73;;;6.40;99.90;;;;;;5080766;27;20476;-78
2023/01/14 07:23:41;;;;;;;3.80;1.80;;;6.50;1.00;;;;;;5111917;27;20454;-79
2023/01/14 07:26:10;;;;;;;2.07;1.40;;;6.60;99.90;;;;;;5117714;27;20975;-79
2023/01/14 07:28:38;;;;;;;6.33;1.80;;;6.50;1.00;;;;;;5103074;27;20492;-79
2023/01/14 07:31:07;;;;;;;4.20;1.70;;;6.60;1.00;;;;;;5119118;27;20501;-78
2023/01/14 07:33:36;;;;;;;2.97;2.30;;;6.50;1.00;;;;;;5099636;27;20457;-79
2023/01/14 07:36:04;;;;;;;2.73;1.80;;;6.40;1.00;;;;;;5109794;27;20450;-79
2023/01/14 07:38:33;;;;;;;2.53;1.63;;;6.40;1.00;;;;;;5118510;27;20484;-79
2023/01/14 07:41:02;;;;;;;4.30;2.00;;;6.40;99.90;;;;;;5114111;27;20495;-79
2023/01/14 07:43:30;;;;;;;5.50;2.40;;;6.50;1.00;;;;;;5104527;27;20548;-78
2023/01/14 07:46:00;;;;;;;6.93;2.20;;;6.60;14.20;;;;;;5110307;27;20607;-80
2023/01/14 07:48:28;;;;;;;3.43;1.50;;;6.60;1.00;;;;;;5121609;27;21340;-80
2023/01/14 07:50:57;;;;;;;3.47;1.70;;;6.50;33.10;;;;;;5115754;27;20448;-78
2023/01/14 07:53:25;;;;;;;2.97;1.73;;;6.50;99.90;;;;;;5115557;27;20549;-79
2023/01/14 07:55:53;;;;;;;4.77;1.80;;;6.60;99.90;;;;;;5116814;27;20461;-79
2023/01/14 07:58:23;;;;;;;4.63;1.60;;;6.70;1.00;;;;;;5116397;27;20476;-80
2023/01/14 08:00:51;;;;;;;4.27;1.87;;;6.50;99.90;;;;;;5102017;27;20472;-80
2023/01/14 08:03:19;;;;;;;4.10;2.43;;;6.60;66.20;;;;;;5112145;27;20515;-79
2023/01/14 08:05:48;;;;;;;4.03;1.73;;;6.60;99.90;;;;;;5120972;27;20453;-79
2023/01/14 08:08:16;;;;;;;5.17;2.30;;;6.50;1.00;;;;;;5118322;27;20477;-78
2023/01/14 08:10:44;;;;;;;4.37;2.13;;;6.60;1.00;;;;;;5114684;27;20441;-80
2023/01/14 08:13:13;;;;;;;3.67;1.77;;;6.60;1.00;;;;;;5109443;27;20592;-80
2023/01/14 08:15:42;;;;;;;4.03;1.53;;;6.70;99.90;;;;;;5106070;27;20546;-80
2023/01/14 08:18:10;;;;;;;5.80;1.70;;;6.70;1.00;;;;;;5115587;27;20487;-79
2023/01/14 08:20:38;;;;;;;4.70;2.20;;;6.80;99.90;;;;;;5113005;27;20465;-78
2023/01/14 08:23:06;;;;;;;3.80;2.30;;;6.80;99.90;;;;;;5114522;27;20544;-78
2023/01/14 08:25:35;;;;;;;3.53;1.77;;;6.80;66.20;;;;;;5100071;27;20950;-77
2023/01/14 08:28:05;;;;;;;2.93;1.73;;;6.80;1.00;;;;;;5110363;27;20837;-77
2023/01/14 08:30:33;;;;;;;5.33;1.67;;;6.90;1.00;;;;;;5104153;27;20434;-77
2023/01/14 08:33:03;;;;;;;2.73;1.87;;;7.00;99.90;;;;;;5109241;27;20498;-78
2023/01/14 08:35:31;;;;;;;4.67;1.70;;;7.00;99.90;;;;;;5108203;27;20533;-78
2023/01/14 08:37:59;;;;;;;4.30;1.70;;;7.00;99.90;;;;;;5112057;27;20478;-78
2023/01/14 08:40:27;;;;;;;2.70;1.90;;;7.00;2.70;;;;;;5098159;27;21080;-79
2023/01/14 08:42:55;;;;;;;3.20;2.90;;;7.00;1.00;;;;;;5111767;27;20508;-77
2023/01/14 08:45:23;;;;;;;7.83;2.60;;;7.00;1.00;;;;;;5111443;27;20447;-79
2023/01/14 08:47:51;;;;;;;1.97;1.77;;;7.00;99.90;;;;;;5114414;27;20468;-79
2023/01/14 08:50:21;;;;;;;4.10;2.00;;;7.10;1.00;;;;;;5101878;27;20438;-79
2023/01/14 08:52:49;;;;;;;5.83;2.87;;;7.00;1.00;;;;;;5112169;27;20452;-78
2023/01/14 08:55:17;;;;;;;5.23;1.50;;;7.00;99.90;;;;;;5112218;27;20858;-79
2023/01/14 08:57:45;;;;;;;6.73;1.77;;;7.00;99.90;;;;;;5113700;27;20455;-77
2023/01/14 09:00:15;;;;;;;6.03;2.10;;;7.10;1.00;;;;;;5111613;27;20559;-78
2023/01/14 09:02:43;;;;;;;2.13;1.60;;;7.20;16.60;;;;;;5111714;27;20453;-74
2023/01/14 09:05:13;;;;;;;4.00;1.60;;;7.20;99.90;;;;;;5112361;27;20530;-77
2023/01/14 09:18:46;;;;;;;5.23;2.63;;;7.40;99.90;;;;;;5094287;27;20526;-80
2023/01/14 09:21:14;;;;;;;3.90;1.70;;;7.40;99.90;;;;;;5117527;27;20986;-79
2023/01/14 09:23:44;;;;;;;2.00;1.87;;;7.40;99.90;;;;;;5112383;27;20470;-78
2023/01/14 09:26:12;;;;;;;5.73;1.50;;;7.40;99.90;;;;;;5104157;27;20521;-79
2023/01/14 09:28:40;;;;;;;2.13;1.77;;;7.40;75.90;;;;;;5109755;27;20522;-79
2023/01/14 09:31:08;;;;;;;2.80;1.83;;;7.40;99.90;;;;;;5102310;27;20447;-79
2023/01/14 09:33:37;;;;;;;1.97;1.50;;;7.40;12.90;;;;;;5100334;27;20482;-80
2023/01/14 09:36:05;;;;;;;1.67;1.57;;;7.50;39.60;;;;;;5108417;27;20484;-81
2023/01/14 09:38:33;;;;;;;1.70;1.47;;;7.50;1.00;;;;;;5085610;27;20487;-80
2023/01/14 09:41:03;;;;;;;1.80;1.53;;;7.50;99.90;;;;;;5109718;27;20488;-80
2023/01/14 09:43:40;;;;;;;2.73;1.70;;;7.50;1.00;;;;;;5101907;27;20454;-80
2023/01/14 09:46:11;;;;;;;1.97;1.50;;;7.60;1.00;;;;;;5111017;27;20458;-79
2023/01/14 09:48:40;;;;;;;2.43;1.40;;;7.50;99.90;;;;;;5104033;27;20467;-79
2023/01/14 09:51:27;;;;;;;1.67;1.60;;;7.60;1.00;;;;;;5103683;27;20452;-79
2023/01/14 09:54:05;;;;;;;3.38;2.00;;;7.70;1.00;;;;;;5105428;27;20441;-77
2023/01/14 09:56:39;;;;;;;2.70;1.80;;;7.70;1.00;;;;;;5103186;27;20207;-79
2023/01/14 09:59:15;;;;;;;2.20;2.10;;;7.70;99.90;;;;;;5089109;27;21040;-79
2023/01/14 10:01:51;;;;;;;2.07;1.73;;;7.80;1.00;;;;;;5093713;28;20532;-80
2023/01/14 10:04:41;;;;;;;1.97;1.87;;;7.90;61.60;;;;;;5113338;27;20542;-79
2023/01/14 10:07:11;;;;;;;1.73;1.63;;;7.90;99.90;;;;;;5110711;27;20449;-79
2023/01/14 10:09:44;;;;;;;5.07;1.70;;;7.90;99.90;;;;;;5105233;27;20464;-80
2023/01/14 10:12:18;;;;;;;2.23;1.87;;;7.90;1.00;;;;;;5085953;28;20473;-79
2023/01/14 10:14:54;;;;;;;2.70;1.90;;;7.90;99.90;;;;;;5110060;27;20542;-79
2023/01/14 10:17:29;;;;;;;2.10;1.60;;;7.80;1.00;;;;;;5115046;27;20783;-80
2023/01/14 10:19:59;;;;;;;1.67;1.57;;;7.70;99.90;;;;;;5113085;28;20477;-79
2023/01/14 10:22:35;;;;;;;1.90;1.80;;;7.80;99.90;;;;;;5113134;28;20523;-80
2023/01/14 10:25:05;;;;;;;1.80;1.70;;;7.80;99.90;;;;;;5113598;28;20938;-80
2023/01/14 10:27:35;;;;;;;2.83;1.60;;;7.80;99.90;;;;;;5108683;28;20451;-79
2023/01/14 10:30:17;;;;;;;5.50;1.50;;;7.80;1.00;;;;;;5113805;28;20446;-79
2023/01/14 10:32:46;;;;;;;2.00;1.90;;;7.90;99.90;;;;;;5112471;27;20454;-79
2023/01/14 10:35:17;;;;;;;1.80;1.70;;;7.90;1.00;;;;;;5090493;27;20934;-77
2023/01/14 10:37:45;;;;;;;2.77;1.87;;;7.90;99.90;;;;;;5118863;27;20532;-77
2023/01/14 10:40:23;;;;;;;3.30;1.70;;;8.00;1.00;;;;;;5118762;27;20454;-77
2023/01/14 10:42:53;;;;;;;2.20;2.00;;;8.10;1.00;;;;;;5117988;27;20874;-79
2023/01/14 10:45:21;;;;;;;1.97;1.77;;;8.10;99.90;;;;;;5119710;27;20451;-80
2023/01/14 10:47:54;;;;;;;4.17;3.00;;;8.10;99.90;;;;;;5112773;27;20885;-80
2023/01/14 10:50:24;;;;;;;2.30;1.80;;;8.10;99.90;;;;;;5113660;27;20510;-80
2023/01/14 10:52:53;;;;;;;2.80;1.67;;;8.10;88.60;;;;;;5106217;27;20482;-81
2023/01/14 10:55:25;;;;;;;2.27;2.17;;;8.10;97.60;;;;;;5086112;27;20519;-80
2023/01/14 10:58:02;;;;;;;4.23;1.90;;;8.10;99.90;;;;;;5104622;27;20458;-79
2023/01/14 11:00:34;;;;;;;2.00;1.90;;;8.10;99.90;;;;;;5103514;27;20826;-81
2023/01/14 11:03:06;;;;;;;2.00;1.90;;;8.00;1.00;;;;;;5101464;27;21211;-80
2023/01/14 11:05:36;;;;;;;4.30;1.77;;;8.10;99.90;;;;;;5084825;28;20451;-80
2023/01/14 11:08:20;;;;;;;2.53;1.77;;;8.10;1.00;;;;;;5104362;27;20474;-81
2023/01/14 11:10:55;;;;;;;2.10;1.73;;;8.20;99.90;;;;;;5099831;27;20451;-81
2023/01/14 11:13:30;;;;;;;3.43;2.63;;;8.00;99.90;;;;;;5101689;27;20525;-83
2023/01/14 11:15:59;;;;;;;3.33;1.70;;;8.00;1.00;;;;;;5106475;27;20543;-82
2023/01/14 11:18:30;;;;;;;1.70;1.60;;;8.10;99.90;;;;;;5097097;27;20481;-80
2023/01/14 11:21:13;;;;;;;1.67;1.57;;;8.10;99.90;;;;;;5105768;27;20434;-82
2023/01/14 11:23:43;;;;;;;1.50;1.50;;;8.20;1.00;;;;;;5116001;27;20451;-82
2023/01/14 11:26:13;;;;;;;2.03;1.77;;;8.20;99.90;;;;;;5101195;27;20523;-81
2023/01/14 11:28:47;;;;;;;1.60;1.50;;;8.10;99.90;;;;;;5105876;27;20715;-81
2023/01/14 11:31:17;;;;;;;1.97;1.77;;;8.20;1.00;;;;;;5096682;27;20461;-80
2023/01/14 11:33:50;;;;;;;1.70;1.60;;;8.20;1.00;;;;;;5103723;27;20520;-80
2023/01/14 11:36:23;;;;;;;1.87;1.77;;;8.20;99.90;;;;;;5103559;27;20445;-82
2023/01/14 11:38:52;;;;;;;3.83;1.60;;;8.20;99.90;;;;;;5103546;27;20478;-81
2023/01/14 11:41:33;;;;;;;2.70;1.60;;;8.20;99.90;;;;;;5107202;27;20516;-81
2023/01/14 11:44:04;;;;;;;1.80;1.70;;;8.30;99.90;;;;;;5099946;27;20446;-83
2023/01/14 11:46:35;;;;;;;3.23;1.83;;;8.30;99.90;;;;;;5100431;27;20455;-82
2023/01/14 11:49:17;;;;;;;1.60;1.50;;;8.40;1.00;;;;;;5097303;27;20493;-80
2023/01/14 11:51:58;;;;;;;4.53;2.40;;;8.40;1.00;;;;;;5095371;27;20447;-80
2023/01/14 11:54:34;;;;;;;2.03;1.93;;;8.40;26.80;;;;;;5106399;27;20501;-81
2023/01/14 11:57:03;;;;;;;1.60;1.50;;;8.40;59.80;;;;;;5109622;27;20474;-80
2023/01/14 11:59:36;;;;;;;2.87;1.60;;;8.40;99.90;;;;;;5112956;27;20470;-81
2023/01/14 12:02:12;;;;;;;1.90;1.50;;;8.40;1.00;;;;;;5117288;27;20467;-80
2023/01/14 12:04:45;;;;;;;2.70;1.50;;;8.40;99.90;;;;;;5100041;27;20459;-81
2023/01/14 12:07:18;;;;;;;1.53;1.43;;;8.40;1.00;;;;;;5095482;28;20479;-80
2023/01/14 12:09:52;;;;;;;2.67;1.70;;;8.40;99.90;;;;;;5102977;27;20480;-80
2023/01/14 12:12:25;;;;;;;1.77;1.67;;;8.40;99.90;;;;;;5103250;27;20482;-83
2023/01/14 12:17:54;;;;;;;1.83;1.73;;;8.40;1.00;;;;;;5104869;27;20456;-81
2023/01/14 12:20:25;;;;;;;1.77;1.67;;;8.40;1.00;;;;;;5107934;27;20454;-82
2023/01/14 12:22:57;;;;;;;2.53;2.22;;;8.40;99.90;;;;;;5103878;27;20984;-80
2023/01/14 12:25:29;;;;;;;2.20;1.60;;;8.40;1.00;;;;;;5105215;27;20202;-80
2023/01/14 12:28:02;;;;;;;1.60;1.50;;;8.40;99.90;;;;;;5103864;27;20452;-79
2023/01/14 12:30:48;;;;;;;1.93;1.47;;;8.40;1.00;;;;;;5104608;27;20451;-81
2023/01/14 12:33:26;;;;;;;4.20;2.00;;;8.40;99.90;;;;;;5102154;27;20688;-81
2023/01/14 12:36:00;;;;;;;2.47;1.80;;;8.40;1.00;;;;;;5109353;27;20463;-80
2023/01/14 12:47:07;;;;;;;3.43;1.60;;;8.40;99.90;;;;;;5108762;27;20451;-81
2023/01/14 12:49:37;;;;;;;2.13;1.60;;;8.50;99.90;;;;;;5114683;27;20467;-80
2023/01/14 12:52:06;;;;;;;3.00;1.87;;;8.50;1.00;;;;;;5121052;27;20441;-81
2023/01/14 12:54:36;;;;;;;3.03;2.63;;;8.60;99.90;;;;;;5097565;27;20479;-81
2023/01/14 12:57:07;;;;;;;3.23;1.57;;;8.50;1.00;;;;;;5120247;27;20459;-81
2023/01/14 12:59:38;;;;;;;1.50;1.40;;;8.50;99.90;;;;;;5120191;27;21033;-81
2023/01/14 13:02:18;;;;;;;2.37;2.00;;;8.40;99.90;;;;;;5103736;27;20461;-81
2023/01/14 13:04:50;;;;;;;2.70;2.50;;;8.40;99.90;;;;;;5111324;27;20468;-80
2023/01/14 13:07:21;;;;;;;1.83;1.73;;;8.50;99.90;;;;;;5118342;27;20457;-81
2023/01/14 13:09:54;;;;;;;3.23;1.50;;;8.50;99.90;;;;;;5121913;27;20475;-81
2023/01/14 13:12:27;;;;;;;3.57;1.80;;;8.60;1.00;;;;;;5122760;27;20459;-81
2023/01/14 13:14:58;;;;;;;2.10;2.00;;;8.40;99.90;;;;;;5119528;27;20452;-81
2023/01/14 13:17:33;;;;;;;2.53;1.80;;;8.50;1.00;;;;;;5119761;27;21221;-81
2023/01/14 13:20:03;;;;;;;2.80;1.93;;;8.50;99.90;;;;;;5118450;27;20594;-81
2023/01/14 13:22:46;;;;;;;2.90;1.60;;;8.50;99.90;;;;;;5116144;27;21219;-81
2023/01/14 13:25:32;;;;;;;1.60;1.50;;;8.50;99.90;;;;;;5099740;27;20457;-80
2023/01/14 13:28:02;;;;;;;2.13;1.40;;;8.60;94.10;;;;;;5120333;27;20458;-80
2023/01/14 13:30:45;;;;;;;1.87;1.40;;;8.60;99.90;;;;;;5118044;27;20978;-80
2023/01/14 13:33:24;;;;;;;2.03;1.63;;;8.60;58.50;;;;;;5115993;27;21036;-81
2023/01/14 13:36:20;;;;;;;1.50;1.40;;;8.60;1.00;;;;;;5115555;27;20447;-81
2023/01/14 13:39:04;;;;;;;4.03;1.70;;;8.70;1.00;;;;;;5055093;27;21022;-81
2023/01/14 13:41:44;;;;;;;1.73;1.40;;;8.70;1.00;;;;;;5108746;27;20987;-81
2023/01/14 13:44:24;;;;;;;1.50;1.40;;;8.70;1.00;;;;;;5102254;27;20479;-81
2023/01/14 13:46:55;;;;;;;2.23;1.50;;;8.70;1.00;;;;;;5115182;27;20451;-80
2023/01/14 13:49:30;;;;;;;2.03;1.80;;;8.70;99.90;;;;;;5115766;27;20468;-80
2023/01/14 13:52:03;;;;;;;1.80;1.70;;;8.70;99.90;;;;;;5115019;27;20459;-80
2023/01/14 13:54:33;;;;;;;1.87;1.77;;;8.80;1.00;;;;;;5109544;27;20952;-81
2023/01/14 13:57:27;;;;;;;2.23;1.50;;;8.90;1.00;;;;;;5098929;28;20546;-79
2023/01/14 13:59:59;;;;;;;1.37;1.27;;;8.90;1.00;;;;;;5109573;27;20515;-80
2023/01/14 14:02:48;;;;;;;1.47;1.37;;;8.90;99.90;;;;;;5111465;27;20495;-81
2023/01/14 14:05:24;;;;;;;1.40;1.30;;;8.90;1.00;;;;;;5117735;27;20551;-80